createdAt,value
2022-09-20T00:03:17.711Z,99665.31
2022-09-20T00:09:19.426Z,99624.47
2022-09-20T00:15:21.129Z,99674.75
2022-09-20T00:21:25.638Z,99682.59
2022-09-20T00:27:27.672Z,99667.97
2022-09-20T00:33:49.275Z,99673.91
2022-09-20T00:39:50.980Z,99672.91
2022-09-20T00:45:52.824Z,99624.59
2022-09-20T00:51:59.321Z,99686.91
2022-09-20T00:58:01.798Z,99629.88
2022-09-20T01:04:03.985Z,99679.03
2022-09-20T01:10:06.289Z,99614.22
2022-09-20T01:16:09.338Z,99604.75
2022-09-20T01:22:26.980Z,99652.22
2022-09-20T01:28:30.423Z,99652.31
2022-09-20T01:34:37.934Z,99660.97
2022-09-20T01:41:04.287Z,99625.28
2022-09-20T01:47:20.091Z,99648.78
2022-09-20T01:53:55.830Z,99658.47
2022-09-20T02:00:06.757Z,99664.56
2022-09-20T02:06:39.372Z,99640.31
2022-09-20T02:12:56.514Z,99659.38
2022-09-20T02:19:35.768Z,99679.16
2022-09-20T02:25:58.765Z,99676.81
2022-09-20T02:32:37.951Z,99677.94
2022-09-20T02:39:00.424Z,99636.75
2022-09-20T02:45:18.812Z,99663.34
2022-09-20T02:51:37.837Z,99590.59
2022-09-20T02:58:05.868Z,99667.19
2022-09-20T03:04:34.933Z,99669.53
2022-09-20T03:10:44.962Z,99665.31
2022-09-20T03:17:05.176Z,99666.16
2022-09-20T03:23:26.880Z,99671.78
2022-09-20T03:29:43.809Z,99669.44
2022-09-20T03:36:09.578Z,99640.78
2022-09-20T03:42:11.278Z,99676.34
2022-09-20T03:48:31.864Z,99669.13
2022-09-20T03:55:10.035Z,99651.28
2022-09-20T04:01:30.447Z,99674.31
2022-09-20T04:07:44.312Z,99680.09
2022-09-20T04:14:03.908Z,99684.47
2022-09-20T04:20:20.708Z,99685.50
2022-09-20T04:26:31.445Z,99656.03
2022-09-20T04:32:46.988Z,99668.72
2022-09-20T04:38:57.598Z,99653.53
2022-09-20T04:45:18.352Z,99694.13
2022-09-20T04:51:38.737Z,99702.25
2022-09-20T04:57:46.547Z,99703.94
2022-09-20T05:03:54.208Z,99705.31
2022-09-20T05:10:15.811Z,99709.34
2022-09-20T05:16:34.050Z,99700.25
2022-09-20T05:23:03.651Z,99708.50
2022-09-20T05:29:10.669Z,99713.00
2022-09-20T05:35:43.393Z,99710.88
2022-09-20T05:41:59.333Z,99712.34
2022-09-20T05:48:10.367Z,99723.97
2022-09-20T05:54:27.668Z,99720.06
2022-09-20T06:01:05.453Z,99683.31
2022-09-20T06:14:03.864Z,99720.75
2022-09-20T06:33:06.604Z,99739.13
2022-09-20T06:39:43.601Z,99741.78
2022-09-20T06:45:45.767Z,99631.06
2022-09-20T06:52:13.620Z,99747.94
2022-09-20T06:58:21.601Z,99750.81
2022-09-20T07:04:27.435Z,99684.25
2022-09-20T07:11:07.346Z,99713.28
2022-09-20T07:17:09.761Z,99750.22
2022-09-20T07:23:16.410Z,99761.75
2022-09-20T07:29:21.566Z,99713.88
2022-09-20T07:35:23.633Z,99714.19
2022-09-20T07:41:35.488Z,99712.06
2022-09-20T07:47:41.763Z,99686.75
2022-09-20T08:00:05.925Z,99636.06
2022-09-20T08:06:11.761Z,99748.53
2022-09-20T08:18:30.035Z,99654.44
2022-09-20T08:24:35.781Z,99726.47
2022-09-20T08:30:38.133Z,99634.38
2022-09-20T08:36:44.977Z,99742.13
2022-09-20T08:42:48.502Z,99740.41
2022-09-20T08:55:20.908Z,99636.06
2022-09-20T09:08:45.209Z,99729.16
2022-09-20T09:21:10.633Z,99709.34
2022-09-20T09:33:34.465Z,99684.28
2022-09-20T09:39:38.502Z,99605.03
2022-09-20T09:45:44.581Z,99659.19
2022-09-20T09:52:04.824Z,99709.41
2022-09-20T10:05:10.265Z,99657.97
2022-09-20T10:18:25.159Z,99691.72
2022-09-20T10:24:59.667Z,99697.56
2022-09-20T10:38:21.849Z,99708.22
2022-09-20T10:44:45.617Z,99699.22
2022-09-20T10:51:21.360Z,99710.16
2022-09-20T10:57:51.238Z,99689.00
2022-09-20T11:04:26.817Z,99700.16
2022-09-20T11:30:37.372Z,99696.72
2022-09-20T11:37:15.494Z,99542.09
2022-09-20T11:43:32.170Z,99592.06
2022-09-20T11:50:13.142Z,99688.50
2022-09-20T11:56:25.235Z,99670.16
2022-09-20T12:02:59.044Z,99687.56
2022-09-20T12:09:33.493Z,99626.75
2022-09-20T12:15:58.823Z,99591.66
2022-09-20T12:22:04.237Z,99699.72
2022-09-20T12:28:23.419Z,99636.00
2022-09-20T12:34:30.216Z,99687.09
2022-09-20T12:40:37.351Z,99656.63
2022-09-20T12:46:52.363Z,99647.28
2022-09-20T12:52:58.906Z,99610.28
2022-09-20T12:59:05.623Z,99648.84
2022-09-20T13:05:32.273Z,99690.09
2022-09-20T13:11:56.102Z,99687.06
2022-09-20T13:18:01.513Z,99681.56
2022-09-20T13:24:04.506Z,99673.22
2022-09-20T13:30:22.629Z,99572.59
2022-09-20T13:36:30.501Z,99677.00
2022-09-20T13:49:10.614Z,99692.59
2022-09-20T13:55:34.051Z,99687.31
2022-09-20T14:02:12.153Z,99642.63
2022-09-20T14:08:34.130Z,99649.69
2022-09-20T14:14:37.052Z,99635.47
2022-09-20T14:20:43.995Z,99680.56
2022-09-20T14:27:05.669Z,99660.75
2022-09-20T14:33:27.002Z,99641.91
2022-09-20T14:39:29.046Z,99691.78
2022-09-20T14:45:35.440Z,99694.75
2022-09-20T14:51:46.578Z,99607.66
2022-09-20T14:57:51.674Z,99656.19
2022-09-20T15:03:55.738Z,99717.88
2022-09-20T15:09:58.066Z,99668.94
2022-09-20T15:16:17.822Z,99698.72
2022-09-20T15:22:19.772Z,99685.84
2022-09-20T15:28:22.194Z,99685.00
2022-09-20T15:34:25.159Z,99738.88
2022-09-20T15:40:27.189Z,99696.69
2022-09-20T15:46:29.597Z,99737.31
2022-09-20T15:52:36.861Z,99752.75
2022-09-20T15:58:38.623Z,99751.22
2022-09-20T16:04:40.328Z,99733.69
2022-09-20T16:10:45.887Z,99696.34
2022-09-20T16:16:47.717Z,99775.75
2022-09-20T16:22:49.532Z,99768.00
2022-09-20T16:28:51.411Z,99762.25
2022-09-20T16:34:55.101Z,99761.03
2022-09-20T16:40:57.774Z,99728.78
2022-09-20T16:46:59.555Z,99768.78
2022-09-20T16:53:01.292Z,99805.28
2022-09-20T16:59:05.272Z,99827.38
2022-09-20T17:05:08.400Z,99791.81
2022-09-20T17:11:14.223Z,99805.66
2022-09-20T17:17:15.962Z,99759.72
2022-09-20T17:23:17.847Z,99785.47
2022-09-20T17:29:20.743Z,99847.47
2022-09-20T17:35:23.563Z,99789.50
2022-09-20T17:41:26.367Z,99829.59
2022-09-20T17:47:28.125Z,99776.59
2022-09-20T17:53:35.990Z,99864.41
2022-09-20T17:59:37.763Z,99796.69
2022-09-20T18:05:39.560Z,99847.09
2022-09-20T18:11:49.245Z,99833.72
2022-09-20T18:17:54.435Z,99870.84
2022-09-20T18:23:57.566Z,99786.69
2022-09-20T18:29:59.331Z,99870.84
2022-09-20T18:36:06.637Z,99874.44
2022-09-20T18:42:09.248Z,99851.78
2022-09-20T18:48:12.624Z,99827.63
2022-09-20T18:54:16.221Z,99753.88
2022-09-20T19:00:23.694Z,99831.13
2022-09-20T19:06:30.830Z,99870.50
2022-09-20T19:12:55.657Z,99875.06
2022-09-20T19:19:20.411Z,99882.56
2022-09-20T19:25:43.500Z,99822.13
2022-09-20T19:31:49.887Z,99829.78
2022-09-20T19:38:04.536Z,99818.56
2022-09-20T19:44:34.133Z,99887.13
2022-09-20T19:50:49.847Z,99888.31
2022-09-20T19:56:57.214Z,99806.81
2022-09-20T20:02:59.375Z,99868.28
2022-09-20T20:09:04.160Z,99915.06
2022-09-20T20:15:46.360Z,99917.31
2022-09-20T20:21:59.081Z,99929.47
2022-09-20T20:28:00.942Z,99906.53
2022-09-20T20:34:02.696Z,99920.19
2022-09-20T20:40:05.784Z,99935.13
2022-09-20T20:46:12.473Z,99883.81
2022-09-20T20:52:14.366Z,99889.72
2022-09-20T20:58:16.104Z,99927.16
2022-09-20T21:04:18.304Z,99931.50
2022-09-20T21:10:21.880Z,99903.50
2022-09-20T21:16:29.373Z,99928.13
2022-09-20T21:22:32.244Z,99926.50
2022-09-20T21:28:42.077Z,99888.16
2022-09-20T21:34:43.830Z,99922.88
2022-09-20T21:40:45.572Z,99890.16
2022-09-20T21:46:48.531Z,99908.75
2022-09-20T21:52:50.788Z,99894.91
2022-09-20T21:58:52.529Z,99923.94
2022-09-20T22:04:54.219Z,99931.09
2022-09-20T22:10:57.552Z,99930.41
2022-09-20T22:17:00.315Z,99889.00
2022-09-20T22:23:02.003Z,99924.69
2022-09-20T22:29:04.626Z,99910.53
2022-09-20T22:35:06.626Z,99933.78
2022-09-20T22:41:08.400Z,99923.38
2022-09-20T22:47:10.290Z,99929.78
2022-09-20T22:53:12.221Z,99881.19
2022-09-20T22:59:14.796Z,99911.88
2022-09-20T23:05:18.246Z,99862.69
2022-09-20T23:11:20.500Z,99927.28
2022-09-20T23:17:22.472Z,99892.22
2022-09-20T23:23:24.166Z,99928.88
2022-09-20T23:29:26.169Z,99902.31
2022-09-20T23:35:27.883Z,99889.97
2022-09-20T23:41:29.877Z,99862.00
2022-09-20T23:47:31.597Z,99880.44
2022-09-20T23:53:33.514Z,99904.59
2022-09-20T23:59:35.227Z,99920.19
